createdAt,value
2018-09-08T00:02:15.621Z,100052.92
2018-09-08T00:05:20.478Z,100048.41
2018-09-08T00:08:25.371Z,100042.64
2018-09-08T00:11:30.454Z,100041.56
2018-09-08T00:14:34.253Z,100043.78
2018-09-08T00:17:44.528Z,100047.16
2018-09-08T00:20:54.691Z,100044.56
2018-09-08T00:24:04.862Z,100041.64
2018-09-08T00:27:08.815Z,100041.09
2018-09-08T00:30:15.334Z,100040.80
2018-09-08T00:33:20.336Z,100042.27
2018-09-08T00:36:25.176Z,100046.48
2018-09-08T00:39:31.339Z,100047.91
2018-09-08T00:42:36.292Z,100050.67
2018-09-08T00:45:41.200Z,100045.80
2018-09-08T00:48:46.109Z,100055.41
2018-09-08T00:51:51.055Z,100057.55
2018-09-08T00:54:57.009Z,100060.67
2018-09-08T00:58:01.877Z,100057.34
2018-09-08T01:01:06.873Z,100063.73
2018-09-08T01:04:11.782Z,100073.19
2018-09-08T01:07:21.776Z,100067.84
2018-09-08T01:10:26.642Z,100066.59
2018-09-08T01:13:31.530Z,100067.48
2018-09-08T01:16:36.469Z,100072.62
2018-09-08T01:19:41.353Z,100070.30
2018-09-08T01:22:46.205Z,100072.59
2018-09-08T01:25:51.045Z,100070.29
2018-09-08T01:28:55.857Z,100067.99
2018-09-08T01:32:00.665Z,100073.02
2018-09-08T01:35:05.671Z,100074.94
2018-09-08T01:38:10.739Z,100077.03
2018-09-08T01:41:15.548Z,100073.91
2018-09-08T01:44:20.365Z,100073.53
2018-09-08T01:47:25.278Z,100081.31
2018-09-08T01:50:30.234Z,100085.98
2018-09-08T01:53:35.058Z,100082.46
2018-09-08T01:56:39.890Z,100096.91
2018-09-08T01:59:44.871Z,100092.36
2018-09-08T02:02:49.769Z,100087.89
2018-09-08T02:05:54.601Z,100091.55
2018-09-08T02:08:59.619Z,100093.94
2018-09-08T02:12:04.625Z,100091.55
2018-09-08T02:15:09.876Z,100095.90
2018-09-08T02:18:14.925Z,100102.13
2018-09-08T02:21:19.855Z,100102.06
2018-09-08T02:24:24.761Z,100100.22
2018-09-08T02:27:29.692Z,100099.91
2018-09-08T02:30:34.701Z,100101.09
2018-09-08T02:33:39.557Z,100108.05
2018-09-08T02:36:44.425Z,100106.52
2018-09-08T02:39:49.201Z,100108.20
2018-09-08T02:42:54.034Z,100112.30
2018-09-08T02:45:58.870Z,100117.05
2018-09-08T02:49:03.769Z,100113.59
2018-09-08T02:52:06.742Z,100116.03
2018-09-08T02:55:09.649Z,100113.05
2018-09-08T02:58:12.550Z,100116.98
2018-09-08T03:01:15.521Z,100110.52
2018-09-08T03:04:18.455Z,100110.05
2018-09-08T03:07:21.489Z,100111.53
2018-09-08T03:10:24.417Z,100110.83
2018-09-08T03:13:27.340Z,100110.52
2018-09-08T03:16:30.330Z,100113.80
2018-09-08T03:19:33.239Z,100118.69
2018-09-08T03:22:36.158Z,100127.30
2018-09-08T03:25:39.112Z,100125.75
2018-09-08T03:28:42.054Z,100123.03
2018-09-08T03:31:44.960Z,100121.72
2018-09-08T03:34:47.906Z,100129.99
2018-09-08T03:37:50.835Z,100129.16
2018-09-08T03:40:53.865Z,100127.81
2018-09-08T03:43:56.796Z,100134.80
2018-09-08T03:46:59.925Z,100135.53
2018-09-08T03:50:02.849Z,100131.20
2018-09-08T03:53:05.805Z,100136.64
2018-09-08T03:56:08.843Z,100143.33
2018-09-08T03:59:11.831Z,100135.59
2018-09-08T04:02:14.755Z,100128.77
2018-09-08T04:05:19.597Z,100135.20
2018-09-08T04:08:24.448Z,100138.75
2018-09-08T04:11:29.340Z,100144.34
2018-09-08T04:14:34.295Z,100149.33
2018-09-08T04:17:39.147Z,100151.61
2018-09-08T04:20:44.181Z,100151.22
2018-09-08T04:23:49.043Z,100157.52
2018-09-08T04:26:53.809Z,100158.56
2018-09-08T04:29:58.682Z,100161.36
2018-09-08T04:33:03.864Z,100162.20
2018-09-08T04:36:08.667Z,100165.83
2018-09-08T04:39:13.698Z,100164.77
2018-09-08T04:42:18.534Z,100169.91
2018-09-08T04:45:23.417Z,100170.77
2018-09-08T04:48:28.224Z,100170.91
2018-09-08T04:51:33.085Z,100177.59
2018-09-08T04:54:37.962Z,100184.40
2018-09-08T04:57:42.970Z,100182.23
2018-09-08T05:00:47.865Z,100186.34
2018-09-08T05:03:52.767Z,100195.78
2018-09-08T05:06:57.597Z,100196.37
2018-09-08T05:10:02.496Z,100195.89
2018-09-08T05:13:07.899Z,100199.97
2018-09-08T05:16:12.688Z,100202.78
2018-09-08T05:19:17.554Z,100208.05
2018-09-08T05:22:22.361Z,100210.67
2018-09-08T05:25:27.325Z,100208.83
2018-09-08T05:28:32.259Z,100216.23
2018-09-08T05:31:37.032Z,100212.61
2018-09-08T05:34:41.942Z,100221.70
2018-09-08T05:37:46.791Z,100224.13
2018-09-08T05:40:51.548Z,100232.97
2018-09-08T05:43:56.435Z,100229.12
2018-09-08T05:47:01.247Z,100232.66
2018-09-08T05:50:06.226Z,100234.28
2018-09-08T05:53:11.088Z,100241.83
2018-09-08T05:56:16.008Z,100243.30
2018-09-08T05:59:20.890Z,100247.16
2018-09-08T06:02:25.817Z,100245.91
2018-09-08T06:05:30.646Z,100247.75
2018-09-08T06:08:35.587Z,100248.66
2018-09-08T06:11:40.722Z,100249.80
2018-09-08T06:14:45.608Z,100252.26
2018-09-08T06:17:50.391Z,100249.41
2018-09-08T06:20:55.311Z,100247.81
2018-09-08T06:24:00.164Z,100251.77
2018-09-08T06:27:04.984Z,100242.39
2018-09-08T06:30:09.893Z,100241.39
2018-09-08T06:33:14.735Z,100240.81
2018-09-08T06:36:19.495Z,100252.71
2018-09-08T06:39:24.406Z,100244.43
2018-09-08T06:42:29.240Z,100248.64
2018-09-08T06:45:34.138Z,100248.83
2018-09-08T06:48:38.940Z,100250.58
2018-09-08T06:51:43.769Z,100255.69
2018-09-08T06:54:48.609Z,100254.86
2018-09-08T06:57:53.634Z,100268.29
2018-09-08T07:00:58.463Z,100264.86
2018-09-08T07:04:03.262Z,100265.44
2018-09-08T07:07:11.927Z,100268.67
2018-09-08T07:10:16.899Z,100260.13
2018-09-08T07:13:21.710Z,100261.34
2018-09-08T07:16:26.559Z,100265.80
2018-09-08T07:19:31.382Z,100265.42
2018-09-08T07:22:36.352Z,100262.28
2018-09-08T07:25:41.231Z,100263.52
2018-09-08T07:28:46.135Z,100255.27
2018-09-08T07:31:51.003Z,100260.64
2018-09-08T07:34:55.810Z,100262.64
2018-09-08T07:38:00.700Z,100265.33
2018-09-08T07:41:05.679Z,100267.89
2018-09-08T07:44:10.570Z,100265.17
2018-09-08T07:47:15.488Z,100269.39
2018-09-08T07:50:20.367Z,100269.25
2018-09-08T07:53:25.242Z,100269.79
2018-09-08T07:56:30.142Z,100268.17
2018-09-08T07:59:35.177Z,100258.69
2018-09-08T08:02:40.091Z,100266.80
2018-09-08T08:05:44.948Z,100268.30
2018-09-08T08:08:49.907Z,100263.06
2018-09-08T08:11:54.782Z,100261.45
2018-09-08T08:14:59.717Z,100260.45
2018-09-08T08:18:04.632Z,100263.62
2018-09-08T08:21:09.669Z,100262.80
2018-09-08T08:24:14.563Z,100262.70
2018-09-08T08:27:19.452Z,100258.09
2018-09-08T08:30:24.344Z,100258.42
2018-09-08T08:33:29.215Z,100257.36
2018-09-08T08:36:34.215Z,100258.66
2018-09-08T08:39:39.067Z,100250.75
2018-09-08T08:42:44.120Z,100247.84
2018-09-08T08:45:48.985Z,100251.35
2018-09-08T08:48:53.959Z,100254.13
2018-09-08T08:52:15.703Z,100253.87
2018-09-08T08:55:20.507Z,100255.06
2018-09-08T08:58:25.390Z,100252.09
2018-09-08T09:01:30.245Z,100252.27
2018-09-08T09:04:35.140Z,100253.04
2018-09-08T09:07:40.088Z,100244.88
2018-09-08T09:10:44.947Z,100248.59
2018-09-08T09:13:49.905Z,100246.23
2018-09-08T09:16:54.870Z,100249.09
2018-09-08T09:20:16.531Z,100245.83
2018-09-08T09:24:58.690Z,100246.11
2018-09-08T09:28:03.466Z,100243.95
2018-09-08T09:31:08.397Z,100230.95
2018-09-08T09:34:13.244Z,100245.51
2018-09-08T09:37:18.193Z,100242.19
2018-09-08T09:40:23.495Z,100237.27
2018-09-08T09:43:28.322Z,100231.33
2018-09-08T09:46:33.430Z,100231.25
2018-09-08T09:49:38.191Z,100224.20
2018-09-08T09:52:43.226Z,100229.67
2018-09-08T09:55:48.107Z,100225.87
2018-09-08T09:58:53.045Z,100229.39
2018-09-08T10:02:03.267Z,100223.89
2018-09-08T10:05:13.093Z,100227.48
2018-09-08T10:08:18.092Z,100228.30
2018-09-08T10:11:22.963Z,100228.89
2018-09-08T10:14:27.846Z,100217.63
2018-09-08T10:17:32.855Z,100221.67
2018-09-08T10:20:37.779Z,100217.33
2018-09-08T10:24:04.339Z,100211.00
2018-09-08T10:26:47.694Z,100213.11
2018-09-08T10:29:53.724Z,100218.12
2018-09-08T10:33:07.666Z,100210.20
2018-09-08T10:36:12.729Z,100208.02
2018-09-08T10:39:17.594Z,100195.63
2018-09-08T10:42:22.525Z,100194.75
2018-09-08T10:45:27.435Z,100193.45
2018-09-08T10:48:33.238Z,100184.76
2018-09-08T10:53:00.164Z,100186.28
2018-09-08T10:56:05.181Z,100187.59
2018-09-08T10:59:10.211Z,100189.14
2018-09-08T11:02:15.596Z,100189.14
2018-09-08T11:05:20.103Z,100186.81
2018-09-08T11:08:24.971Z,100187.13
2018-09-08T11:11:29.982Z,100185.66
2018-09-08T11:14:34.985Z,100167.89
2018-09-08T11:17:39.875Z,100177.33
2018-09-08T11:20:45.179Z,100180.89
2018-09-08T11:23:50.144Z,100182.01
2018-09-08T11:26:55.269Z,100179.37
2018-09-08T11:30:00.088Z,100183.16
2018-09-08T11:33:05.024Z,100173.11
2018-09-08T11:36:09.888Z,100162.70
2018-09-08T11:39:15.699Z,100164.38
2018-09-08T11:42:20.542Z,100156.26
2018-09-08T11:45:25.543Z,100164.11
2018-09-08T11:48:30.492Z,100165.86
2018-09-08T11:51:35.347Z,100164.89
2018-09-08T11:54:40.565Z,100167.02
2018-09-08T11:57:45.527Z,100161.29
2018-09-08T12:00:50.617Z,100153.53
2018-09-08T12:03:55.579Z,100151.02
2018-09-08T12:07:00.470Z,100142.22
2018-09-08T12:10:05.711Z,100141.45
2018-09-08T12:13:10.794Z,100142.29
2018-09-08T12:16:15.757Z,100144.41
2018-09-08T12:19:20.686Z,100136.47
2018-09-08T12:22:25.805Z,100141.29
2018-09-08T12:25:30.851Z,100136.94
2018-09-08T12:28:35.810Z,100138.65
2018-09-08T12:31:40.718Z,100143.83
2018-09-08T12:34:50.838Z,100139.47
2018-09-08T12:37:55.845Z,100133.09
2018-09-08T12:41:00.767Z,100134.41
2018-09-08T12:44:05.785Z,100136.81
2018-09-08T12:47:10.654Z,100128.37
2018-09-08T12:50:15.719Z,100130.80
2018-09-08T12:53:20.695Z,100127.25
2018-09-08T12:56:25.684Z,100124.31
2018-09-08T12:59:35.069Z,100125.28
2018-09-08T13:02:39.951Z,100127.59
2018-09-08T13:05:46.170Z,100125.67
2018-09-08T13:08:52.440Z,100120.38
2018-09-08T13:11:57.402Z,100123.57
2018-09-08T13:15:02.311Z,100118.00
2018-09-08T13:18:07.291Z,100117.03
2018-09-08T13:21:12.236Z,100115.91
2018-09-08T13:24:17.207Z,100106.30
2018-09-08T13:27:22.142Z,100103.52
2018-09-08T13:30:26.978Z,100098.13
2018-09-08T13:33:31.912Z,100096.39
2018-09-08T13:36:36.766Z,100086.25
2018-09-08T13:39:41.690Z,100090.80
2018-09-08T13:42:46.545Z,100101.72
2018-09-08T13:45:51.810Z,100091.04
2018-09-08T13:48:56.832Z,100088.78
2018-09-08T13:52:01.823Z,100090.21
2018-09-08T13:55:06.786Z,100095.99
2018-09-08T13:58:11.667Z,100095.86
2018-09-08T14:01:16.529Z,100093.56
2018-09-08T14:04:21.387Z,100094.09
2018-09-08T14:07:26.414Z,100086.30
2018-09-08T14:10:31.361Z,100085.09
2018-09-08T14:13:36.247Z,100082.13
2018-09-08T14:16:41.093Z,100078.13
2018-09-08T14:19:46.049Z,100070.49
2018-09-08T14:22:50.940Z,100060.78
2018-09-08T14:25:55.827Z,100056.41
2018-09-08T14:29:09.087Z,100064.03
2018-09-08T14:32:13.969Z,100066.80
2018-09-08T14:35:18.812Z,100071.87
2018-09-08T14:38:23.787Z,100082.59
2018-09-08T14:41:28.778Z,100065.90
2018-09-08T14:44:33.845Z,100068.06
2018-09-08T14:47:39.339Z,100063.14
2018-09-08T14:50:44.297Z,100061.48
2018-09-08T14:53:49.581Z,100063.05
2018-09-08T14:56:54.453Z,100069.47
2018-09-08T15:00:00.286Z,100071.77
2018-09-08T15:03:05.362Z,100070.49
2018-09-08T15:06:10.345Z,100072.44
2018-09-08T15:09:15.388Z,100068.02
2018-09-08T15:12:20.336Z,100066.34
2018-09-08T15:15:25.201Z,100069.56
2018-09-08T15:18:30.277Z,100070.62
2018-09-08T15:21:35.198Z,100069.99
2018-09-08T15:24:40.175Z,100064.67
2018-09-08T15:27:45.181Z,100065.75
2018-09-08T15:30:50.135Z,100066.80
2018-09-08T15:33:55.197Z,100071.66
2018-09-08T15:37:00.491Z,100070.16
2018-09-08T15:40:05.762Z,100065.05
2018-09-08T15:43:10.709Z,100067.22
2018-09-08T15:46:15.753Z,100065.84
2018-09-08T15:49:20.900Z,100064.53
2018-09-08T15:52:25.856Z,100068.94
2018-09-08T15:55:30.863Z,100068.98
2018-09-08T15:58:36.035Z,100065.26
2018-09-08T16:01:40.801Z,100077.92
2018-09-08T16:04:45.785Z,100075.15
2018-09-08T16:07:50.851Z,100067.52
2018-09-08T16:10:55.739Z,100069.88
2018-09-08T16:14:00.683Z,100071.84
2018-09-08T16:17:05.606Z,100072.77
2018-09-08T16:20:10.763Z,100069.82
2018-09-08T16:23:15.834Z,100069.52
2018-09-08T16:26:22.965Z,100065.30
2018-09-08T16:29:27.885Z,100061.70
2018-09-08T16:32:32.870Z,100069.95
2018-09-08T16:35:37.749Z,100071.34
2018-09-08T16:38:42.700Z,100069.98
2018-09-08T16:41:47.562Z,100068.70
2018-09-08T16:44:52.415Z,100068.70
2018-09-08T16:47:57.307Z,100069.49
2018-09-08T16:51:02.231Z,100064.30
2018-09-08T16:54:07.604Z,100067.36
2018-09-08T16:57:12.490Z,100069.32
2018-09-08T17:00:17.390Z,100083.89
2018-09-08T17:03:22.250Z,100074.28
2018-09-08T17:06:27.257Z,100076.47
2018-09-08T17:09:32.356Z,100075.11
2018-09-08T17:12:37.418Z,100074.81
2018-09-08T17:15:42.379Z,100070.14
2018-09-08T17:18:47.300Z,100071.22
2018-09-08T17:21:52.580Z,100064.33
2018-09-08T17:24:57.624Z,100061.23
2018-09-08T17:28:02.674Z,100062.51
2018-09-08T17:31:07.664Z,100065.16
2018-09-08T17:34:12.973Z,100065.23
2018-09-08T17:37:18.112Z,100066.81
2018-09-08T17:40:23.090Z,100071.41
2018-09-08T17:43:28.143Z,100078.76
2018-09-08T17:46:33.069Z,100079.73
2018-09-08T17:49:38.033Z,100078.53
2018-09-08T17:52:42.994Z,100080.95
2018-09-08T17:55:47.907Z,100086.55
2018-09-08T17:58:53.158Z,100090.55
2018-09-08T18:01:58.802Z,100089.89
2018-09-08T18:05:03.919Z,100092.65
2018-09-08T18:08:08.863Z,100098.80
2018-09-08T18:11:13.728Z,100092.73
2018-09-08T18:14:18.662Z,100102.93
2018-09-08T18:17:23.656Z,100109.78
2018-09-08T18:20:28.594Z,100111.20
2018-09-08T18:23:33.442Z,100119.03
2018-09-08T18:26:38.342Z,100128.66
2018-09-08T18:29:43.680Z,100138.45
2018-09-08T18:32:48.769Z,100135.53
2018-09-08T18:35:55.763Z,100135.80
2018-09-08T18:39:00.742Z,100139.63
2018-09-08T18:42:05.757Z,100135.63
2018-09-08T18:45:10.794Z,100133.64
2018-09-08T18:48:15.862Z,100126.55
2018-09-08T18:51:20.841Z,100130.72
2018-09-08T18:54:26.980Z,100130.88
2018-09-08T18:57:32.031Z,100132.63
2018-09-08T19:00:37.198Z,100144.39
2018-09-08T19:03:42.201Z,100137.12
2018-09-08T19:06:47.236Z,100140.55
2018-09-08T19:09:57.400Z,100141.81
2018-09-08T19:13:03.623Z,100146.17
2018-09-08T19:16:09.295Z,100146.84
2018-09-08T19:19:14.250Z,100146.36
2018-09-08T19:22:19.651Z,100150.34
2018-09-08T19:25:24.646Z,100144.78
2018-09-08T19:28:29.671Z,100146.19
2018-09-08T19:31:34.793Z,100146.23
2018-09-08T19:34:39.763Z,100148.28
2018-09-08T19:37:44.953Z,100148.34
2018-09-08T19:40:49.961Z,100153.16
2018-09-08T19:43:55.016Z,100151.89
2018-09-08T19:48:08.687Z,100150.94
2018-09-08T19:51:13.769Z,100150.42
2018-09-08T19:54:18.907Z,100144.23
2018-09-08T19:57:28.913Z,100144.31
2018-09-08T20:00:34.003Z,100136.39
2018-09-08T20:03:39.000Z,100138.70
2018-09-08T20:06:43.869Z,100139.74
2018-09-08T20:09:49.575Z,100137.22
2018-09-08T20:12:54.603Z,100144.54
2018-09-08T20:15:59.761Z,100144.00
2018-09-08T20:19:05.892Z,100156.56
2018-09-08T20:22:11.800Z,100147.06
2018-09-08T20:25:16.730Z,100146.36
2018-09-08T20:28:21.754Z,100154.18
2018-09-08T20:31:26.973Z,100153.49
2018-09-08T20:34:32.117Z,100156.61
2018-09-08T20:37:37.266Z,100144.18
2018-09-08T20:40:42.799Z,100146.94
2018-09-08T20:43:47.763Z,100143.77
2018-09-08T20:46:52.739Z,100145.67
2018-09-08T20:49:57.660Z,100147.37
2018-09-08T20:53:02.945Z,100156.30
2018-09-08T20:56:08.019Z,100157.83
2018-09-08T20:59:13.044Z,100161.92
2018-09-08T21:02:17.894Z,100150.25
2018-09-08T21:05:22.827Z,100156.38
2018-09-08T21:08:27.850Z,100158.17
2018-09-08T21:11:32.867Z,100155.61
2018-09-08T21:14:38.671Z,100150.47
2018-09-08T21:17:43.614Z,100156.07
2018-09-08T21:20:48.499Z,100161.46
2018-09-08T21:23:53.470Z,100165.28
2018-09-08T21:26:58.423Z,100168.07
2018-09-08T21:30:03.427Z,100162.05
2018-09-08T21:33:08.393Z,100165.37
2018-09-08T21:36:13.629Z,100169.39
2018-09-08T21:39:18.703Z,100173.20
2018-09-08T21:42:23.906Z,100170.50
2018-09-08T21:45:28.878Z,100170.28
2018-09-08T21:48:33.731Z,100166.64
2018-09-08T21:51:38.866Z,100169.34
2018-09-08T21:54:43.874Z,100168.56
2018-09-08T21:57:48.954Z,100173.58
2018-09-08T22:00:56.100Z,100168.23
2018-09-08T22:04:01.163Z,100172.66
2018-09-08T22:07:06.024Z,100180.61
2018-09-08T22:10:10.963Z,100184.77
2018-09-08T22:13:16.104Z,100189.56
2018-09-08T22:16:21.036Z,100190.80
2018-09-08T22:19:25.987Z,100195.38
2018-09-08T22:22:31.066Z,100195.38
2018-09-08T22:25:35.902Z,100185.66
2018-09-08T22:28:40.855Z,100182.63
2018-09-08T22:31:45.954Z,100183.77
2018-09-08T22:34:51.246Z,100187.97
2018-09-08T22:37:56.236Z,100191.97
2018-09-08T22:41:01.151Z,100198.80
2018-09-08T22:44:06.803Z,100201.77
2018-09-08T22:47:11.720Z,100204.09
2018-09-08T22:50:16.900Z,100213.30
2018-09-08T22:53:21.772Z,100219.78
2018-09-08T22:56:26.658Z,100215.45
2018-09-08T22:59:31.589Z,100219.08
2018-09-08T23:02:36.521Z,100219.42
2018-09-08T23:05:41.764Z,100222.56
2018-09-08T23:08:46.744Z,100210.05
2018-09-08T23:11:51.639Z,100193.82
2018-09-08T23:14:56.588Z,100206.28
2018-09-08T23:18:02.283Z,100215.45
2018-09-08T23:21:07.501Z,100210.05
2018-09-08T23:24:12.754Z,100203.03
2018-09-08T23:27:17.640Z,100214.50
2018-09-08T23:30:22.507Z,100211.69
2018-09-08T23:33:27.435Z,100220.06
2018-09-08T23:36:32.388Z,100221.66
2018-09-08T23:39:37.241Z,100219.21
2018-09-08T23:42:42.072Z,100208.30
2018-09-08T23:45:47.246Z,100218.11
2018-09-08T23:48:52.133Z,100220.62
2018-09-08T23:51:57.039Z,100214.58
2018-09-08T23:55:02.041Z,100224.05
2018-09-08T23:58:07.037Z,100228.83
